Time,TemperatureF,DewpointF,PressureIn,WindDirection,WindDirectionDegrees,WindSpeedMPH,WindSpeedGustMPH,Humidity,HourlyPrecipIn,Conditions,Clouds,dailyrainin,SoftwareType,DateUTC
2013-04-15 00:01:00,30.6,23.4,30.36,North,0,0.0,-999.0,74,0.00,,,-99.99,,2013-04-15 08:01:00,
2013-04-15 00:07:00,30.8,23.5,30.36,North,0,0.0,-999.0,74,0.00,,,-99.99,,2013-04-15 08:07:00,
2013-04-15 00:12:00,30.7,23.3,30.36,North,0,0.0,-999.0,73,0.00,,,-99.99,,2013-04-15 08:12:00,
2013-04-15 00:17:00,30.6,23.0,30.36,North,0,0.0,-999.0,73,0.00,,,-99.99,,2013-04-15 08:17:00,
2013-04-15 00:22:00,30.3,22.8,30.36,North,0,0.0,-999.0,73,0.00,,,-99.99,,2013-04-15 08:22:00,
2013-04-15 00:27:00,30.2,22.5,30.36,North,0,0.0,-999.0,72,0.00,,,-99.99,,2013-04-15 08:27:00,
2013-04-15 00:33:00,30.0,22.5,30.36,North,0,0.0,-999.0,73,0.00,,,-99.99,,2013-04-15 08:33:00,
2013-04-15 00:38:00,29.9,22.7,30.36,North,0,0.0,-999.0,74,0.00,,,-99.99,,2013-04-15 08:38:00,
2013-04-15 00:40:00,30.1,22.9,30.36,North,0,0.0,-999.0,74,0.00,,,-99.99,,2013-04-15 08:40:00,
2013-04-15 00:42:00,30.1,22.8,30.36,North,0,0.0,-999.0,73,0.00,,,-99.99,,2013-04-15 08:42:00,
2013-04-15 00:47:00,30.0,22.5,30.36,North,0,0.0,-999.0,73,0.00,,,-99.99,,2013-04-15 08:47:00,
2013-04-15 00:51:00,30.0,22.6,30.36,North,0,0.0,-999.0,73,0.00,,,-99.99,,2013-04-15 08:51:00,
2013-04-15 00:57:00,29.9,22.5,30.36,North,0,0.0,-999.0,73,0.00,,,-99.99,,2013-04-15 08:57:00,
2013-04-15 01:02:00,29.9,22.5,30.34,North,0,0.0,-999.0,73,0.00,,,-99.99,,2013-04-15 09:02:00,
2013-04-15 01:07:00,29.7,22.2,30.34,North,0,0.0,-999.0,73,0.00,,,-99.99,,2013-04-15 09:07:00,
2013-04-15 01:12:00,29.7,22.0,30.34,North,0,0.0,-999.0,72,0.00,,,-99.99,,2013-04-15 09:12:00,
2013-04-15 01:17:00,29.7,21.8,30.34,North,0,0.0,-999.0,72,0.00,,,-99.99,,2013-04-15 09:17:00,
2013-04-15 01:23:00,29.6,21.9,30.34,North,0,0.0,-999.0,72,0.00,,,-99.99,,2013-04-15 09:23:00,
2013-04-15 01:28:00,29.7,21.6,30.34,North,0,0.0,-999.0,71,0.00,,,-99.99,,2013-04-15 09:28:00,
2013-04-15 01:33:00,29.9,21.7,30.34,North,0,0.0,-999.0,71,0.00,,,-99.99,,2013-04-15 09:33:00,
2013-04-15 01:38:00,29.8,21.3,30.34,North,0,0.0,-999.0,70,0.00,,,-99.99,,2013-04-15 09:38:00,
2013-04-15 01:44:00,29.7,21.2,30.34,North,0,0.0,-999.0,70,0.00,,,-99.99,,2013-04-15 09:44:00,
2013-04-15 01:49:00,29.8,20.9,30.34,North,0,0.0,-999.0,68,0.00,,,-99.99,,2013-04-15 09:49:00,
2013-04-15 01:54:00,29.8,21.0,30.34,North,0,0.0,-999.0,69,0.00,,,-99.99,,2013-04-15 09:54:00,
2013-04-15 01:59:00,29.6,21.2,30.32,North,0,0.0,-999.0,70,0.00,,,-99.99,,2013-04-15 09:59:00,
2013-04-15 02:04:00,29.5,21.1,30.32,North,0,0.0,-999.0,70,0.00,,,-99.99,,2013-04-15 10:04:00,
2013-04-15 02:09:00,29.5,21.2,30.32,North,0,0.0,-999.0,70,0.00,,,-99.99,,2013-04-15 10:09:00,
2013-04-15 02:14:00,29.4,21.3,30.32,North,0,0.0,-999.0,71,0.00,,,-99.99,,2013-04-15 10:14:00,
2013-04-15 02:19:00,29.5,21.3,30.32,North,0,0.0,-999.0,71,0.00,,,-99.99,,2013-04-15 10:19:00,
2013-04-15 02:24:00,29.5,21.2,30.32,North,0,0.0,-999.0,70,0.00,,,-99.99,,2013-04-15 10:24:00,
2013-04-15 02:29:00,29.5,21.2,30.32,North,0,0.0,-999.0,70,0.00,,,-99.99,,2013-04-15 10:29:00,
2013-04-15 02:34:00,29.5,21.2,30.32,North,0,0.0,-999.0,70,0.00,,,-99.99,,2013-04-15 10:34:00,
2013-04-15 02:39:00,29.5,21.5,30.32,North,0,0.0,-999.0,71,0.00,,,-99.99,,2013-04-15 10:39:00,
2013-04-15 02:44:00,29.7,22.2,30.32,North,0,0.0,-999.0,73,0.00,,,-99.99,,2013-04-15 10:44:00,
2013-04-15 02:49:00,29.9,22.4,30.32,North,0,0.0,-999.0,73,0.00,,,-99.99,,2013-04-15 10:49:00,
2013-04-15 02:54:00,29.7,22.4,30.32,North,0,0.0,-999.0,73,0.00,,,-99.99,,2013-04-15 10:54:00,
2013-04-15 02:59:00,29.7,22.7,30.31,North,0,0.0,-999.0,74,0.00,,,-99.99,,2013-04-15 10:59:00,
2013-04-15 03:04:00,29.9,22.8,30.31,North,0,0.0,-999.0,74,0.00,,,-99.99,,2013-04-15 11:04:00,
2013-04-15 03:09:00,29.7,22.8,30.31,North,0,0.0,-999.0,74,0.00,,,-99.99,,2013-04-15 11:09:00,
2013-04-15 03:14:00,29.6,22.7,30.31,North,0,0.0,-999.0,75,0.00,,,-99.99,,2013-04-15 11:14:00,
2013-04-15 03:19:00,29.4,22.6,30.31,North,0,0.0,-999.0,75,0.00,,,-99.99,,2013-04-15 11:19:00,
2013-04-15 03:24:00,29.6,23.0,30.31,North,0,0.0,-999.0,75,0.00,,,-99.99,,2013-04-15 11:24:00,
2013-04-15 03:29:00,29.5,22.8,30.31,North,0,0.0,-999.0,75,0.00,,,-99.99,,2013-04-15 11:29:00,
2013-04-15 03:34:00,29.4,22.7,30.31,North,0,0.0,-999.0,75,0.00,,,-99.99,,2013-04-15 11:34:00,
2013-04-15 03:39:00,29.4,22.8,30.31,North,0,0.0,-999.0,76,0.00,,,-99.99,,2013-04-15 11:39:00,
2013-04-15 03:44:00,29.2,22.5,30.31,North,0,0.0,-999.0,75,0.00,,,-99.99,,2013-04-15 11:44:00,
2013-04-15 03:49:00,29.0,22.5,30.31,North,0,0.0,-999.0,76,0.00,,,-99.99,,2013-04-15 11:49:00,
2013-04-15 03:54:00,29.1,22.6,30.31,North,0,0.0,-999.0,76,0.00,,,-99.99,,2013-04-15 11:54:00,
2013-04-15 03:59:00,29.1,22.8,30.28,North,0,0.0,-999.0,76,0.00,,,-99.99,,2013-04-15 11:59:00,
2013-04-15 04:04:00,29.3,23.0,30.28,North,0,0.0,-999.0,77,0.00,,,-99.99,,2013-04-15 12:04:00,
2013-04-15 04:09:00,29.3,23.0,30.28,North,0,0.0,-999.0,77,0.00,,,-99.99,,2013-04-15 12:09:00,
2013-04-15 04:15:00,29.2,23.0,30.28,North,0,0.0,-999.0,77,0.00,,,-99.99,,2013-04-15 12:15:00,
2013-04-15 04:20:00,29.4,23.2,30.28,North,0,0.0,-999.0,77,0.00,,,-99.99,,2013-04-15 12:20:00,
2013-04-15 04:25:00,29.4,23.2,30.28,North,0,0.0,-999.0,77,0.00,,,-99.99,,2013-04-15 12:25:00,
2013-04-15 04:30:00,29.5,23.3,30.28,North,0,0.0,-999.0,77,0.00,,,-99.99,,2013-04-15 12:30:00,
2013-04-15 04:35:00,29.6,23.2,30.28,North,0,0.0,-999.0,76,0.00,,,-99.99,,2013-04-15 12:35:00,
2013-04-15 04:42:00,29.7,23.4,30.28,North,0,0.0,-999.0,77,0.00,,,-99.99,,2013-04-15 12:42:00,
2013-04-15 04:47:00,29.5,23.2,30.28,North,0,0.0,-999.0,76,0.00,,,-99.99,,2013-04-15 12:47:00,
2013-04-15 04:52:00,29.5,23.1,30.28,North,0,0.0,-999.0,76,0.00,,,-99.99,,2013-04-15 12:52:00,
2013-04-15 05:01:00,29.2,22.9,30.27,North,0,0.0,-999.0,77,0.00,,,-99.99,,2013-04-15 13:01:00,
2013-04-15 05:07:00,29.2,22.6,30.27,North,0,0.0,-999.0,75,0.00,,,-99.99,,2013-04-15 13:07:00,
2013-04-15 05:12:00,28.9,22.2,30.27,North,0,0.0,-999.0,75,0.00,,,-99.99,,2013-04-15 13:12:00,
2013-04-15 05:17:00,28.9,21.9,30.27,North,0,0.0,-999.0,74,0.00,,,-99.99,,2013-04-15 13:17:00,
2013-04-15 05:23:00,28.8,22.0,30.27,North,0,0.0,-999.0,75,0.00,,,-99.99,,2013-04-15 13:23:00,
2013-04-15 05:28:00,28.9,21.6,30.27,North,0,0.0,-999.0,73,0.00,,,-99.99,,2013-04-15 13:28:00,
2013-04-15 05:33:00,29.1,21.8,30.27,North,0,0.0,-999.0,73,0.00,,,-99.99,,2013-04-15 13:33:00,
2013-04-15 05:38:00,29.1,21.8,30.27,North,0,0.0,-999.0,73,0.00,,,-99.99,,2013-04-15 13:38:00,
2013-04-15 05:43:00,28.9,21.7,30.27,North,0,0.0,-999.0,74,0.00,,,-99.99,,2013-04-15 13:43:00,
2013-04-15 05:48:00,28.9,21.6,30.27,North,0,0.0,-999.0,73,0.00,,,-99.99,,2013-04-15 13:48:00,
2013-04-15 05:53:00,28.9,21.5,30.27,North,0,0.0,-999.0,73,0.00,,,-99.99,,2013-04-15 13:53:00,
2013-04-15 05:58:00,29.1,21.8,30.27,North,0,0.0,-999.0,73,0.00,,,-99.99,,2013-04-15 13:58:00,
2013-04-15 06:03:00,28.9,21.0,30.28,North,0,0.0,-999.0,71,0.00,,,-99.99,,2013-04-15 14:03:00,
2013-04-15 06:08:00,28.9,20.7,30.28,North,0,0.0,-999.0,70,0.00,,,-99.99,,2013-04-15 14:08:00,
2013-04-15 06:13:00,29.0,21.1,30.28,North,0,0.0,-999.0,71,0.00,,,-99.99,,2013-04-15 14:13:00,
2013-04-15 06:19:00,29.1,21.2,30.28,North,0,0.0,-999.0,71,0.00,,,-99.99,,2013-04-15 14:19:00,
2013-04-15 06:24:00,29.2,21.2,30.28,North,0,0.0,-999.0,71,0.00,,,-99.99,,2013-04-15 14:24:00,
2013-04-15 06:29:00,29.1,20.9,30.28,North,0,0.0,-999.0,71,0.00,,,-99.99,,2013-04-15 14:29:00,
2013-04-15 06:34:00,28.9,20.7,30.28,North,0,0.0,-999.0,71,0.00,,,-99.99,,2013-04-15 14:34:00,
2013-04-15 06:40:00,28.9,20.7,30.28,North,0,0.0,-999.0,70,0.00,,,-99.99,,2013-04-15 14:40:00,
2013-04-15 06:45:00,28.9,20.3,30.28,North,0,0.0,-999.0,69,0.00,,,-99.99,,2013-04-15 14:45:00,
2013-04-15 06:50:00,29.2,20.7,30.28,North,0,0.0,-999.0,70,0.00,,,-99.99,,2013-04-15 14:50:00,
2013-04-15 06:55:00,29.5,21.0,30.28,North,0,0.0,-999.0,70,0.00,,,-99.99,,2013-04-15 14:55:00,
2013-04-15 07:00:00,29.6,21.0,30.26,North,0,0.0,-999.0,69,0.00,,,-99.99,,2013-04-15 15:00:00,
2013-04-15 07:05:00,29.7,20.9,30.26,North,0,0.0,-999.0,69,0.00,,,-99.99,,2013-04-15 15:05:00,
2013-04-15 07:10:00,29.7,21.1,30.26,North,0,0.0,-999.0,70,0.00,,,-99.99,,2013-04-15 15:10:00,
2013-04-15 07:15:00,29.6,20.7,30.26,North,0,0.0,-999.0,69,0.00,,,-99.99,,2013-04-15 15:15:00,
2013-04-15 07:20:00,29.6,20.9,30.26,North,0,0.0,-999.0,69,0.00,,,-99.99,,2013-04-15 15:20:00,
2013-04-15 07:26:00,29.5,20.6,30.26,North,0,0.0,-999.0,69,0.00,,,-99.99,,2013-04-15 15:26:00,
2013-04-15 07:31:00,29.6,20.3,30.26,North,0,0.0,-999.0,67,0.00,,,-99.99,,2013-04-15 15:31:00,
2013-04-15 07:36:00,29.9,20.9,30.26,North,0,0.0,-999.0,68,0.00,,,-99.99,,2013-04-15 15:36:00,
2013-04-15 07:41:00,29.9,20.5,30.26,North,0,0.0,-999.0,67,0.00,,,-99.99,,2013-04-15 15:41:00,
2013-04-15 07:47:00,30.0,20.7,30.26,North,0,0.0,-999.0,67,0.00,,,-99.99,,2013-04-15 15:47:00,
2013-04-15 07:53:00,30.2,21.3,30.26,North,0,0.0,-999.0,68,0.00,,,-99.99,,2013-04-15 15:53:00,
2013-04-15 07:58:00,30.3,21.0,30.26,North,0,0.0,-999.0,67,0.00,,,-99.99,,2013-04-15 15:58:00,
2013-04-15 08:03:00,30.7,20.8,30.25,North,0,0.0,-999.0,66,0.00,,,-99.99,,2013-04-15 16:03:00,
2013-04-15 08:08:00,31.4,20.8,30.25,North,0,0.0,-999.0,64,0.00,,,-99.99,,2013-04-15 16:08:00,
2013-04-15 08:14:00,33.2,22.2,30.25,North,0,0.0,-999.0,63,0.00,,,-99.99,,2013-04-15 16:14:00,
2013-04-15 08:19:00,34.1,21.5,30.25,North,0,0.0,-999.0,59,0.00,,,-99.99,,2013-04-15 16:19:00,
2013-04-15 08:24:00,35.2,22.0,30.25,North,0,0.0,-999.0,58,0.00,,,-99.99,,2013-04-15 16:24:00,
2013-04-15 08:29:00,36.4,22.5,30.25,North,0,0.0,-999.0,56,0.00,,,-99.99,,2013-04-15 16:29:00,
2013-04-15 08:34:00,36.8,22.6,30.25,North,0,0.0,-999.0,55,0.00,,,-99.99,,2013-04-15 16:34:00,
2013-04-15 08:39:00,37.3,22.7,30.25,North,0,0.0,-999.0,55,0.00,,,-99.99,,2013-04-15 16:39:00,
2013-04-15 08:44:00,37.7,23.4,30.25,North,0,0.0,-999.0,56,0.00,,,-99.99,,2013-04-15 16:44:00,
2013-04-15 08:49:00,38.6,22.7,30.25,North,0,0.0,-999.0,52,0.00,,,-99.99,,2013-04-15 16:49:00,
2013-04-15 08:54:00,37.0,22.2,30.25,North,0,0.0,-999.0,54,0.00,,,-99.99,,2013-04-15 16:54:00,
2013-04-15 08:59:00,37.0,21.6,30.22,North,0,0.0,-999.0,53,0.00,,,-99.99,,2013-04-15 16:59:00,
2013-04-15 09:04:00,37.1,21.8,30.22,North,0,0.0,-999.0,53,0.00,,,-99.99,,2013-04-15 17:04:00,
2013-04-15 09:09:00,37.3,23.1,30.22,North,0,0.0,-999.0,55,0.00,,,-99.99,,2013-04-15 17:09:00,
2013-04-15 09:15:00,38.1,24.5,30.22,North,0,0.0,-999.0,57,0.00,,,-99.99,,2013-04-15 17:15:00,
2013-04-15 09:21:00,38.2,25.2,30.22,North,0,0.0,-999.0,59,0.00,,,-99.99,,2013-04-15 17:21:00,
2013-04-15 09:22:00,38.7,25.8,30.22,North,0,0.0,-999.0,59,0.00,,,-99.99,,2013-04-15 17:22:00,
2013-04-15 09:23:00,38.6,25.7,30.22,North,0,0.0,-999.0,59,0.00,,,-99.99,,2013-04-15 17:23:00,
2013-04-15 09:27:00,38.9,26.1,30.22,North,0,0.0,-999.0,59,0.00,,,-99.99,,2013-04-15 17:27:00,
2013-04-15 09:30:00,39.5,26.2,30.22,North,0,0.0,-999.0,58,0.00,,,-99.99,,2013-04-15 17:30:00,
2013-04-15 09:36:00,40.7,26.3,30.22,North,0,0.0,-999.0,56,0.00,,,-99.99,,2013-04-15 17:36:00,
2013-04-15 09:42:00,41.2,26.1,30.22,North,0,0.0,-999.0,54,0.00,,,-99.99,,2013-04-15 17:42:00,
2013-04-15 09:47:00,40.7,26.1,30.22,North,0,0.0,-999.0,55,0.00,,,-99.99,,2013-04-15 17:47:00,
2013-04-15 09:52:00,41.0,26.2,30.22,North,0,0.0,-999.0,55,0.00,,,-99.99,,2013-04-15 17:52:00,
2013-04-15 09:57:00,40.7,26.1,30.22,North,0,0.0,-999.0,55,0.00,,,-99.99,,2013-04-15 17:57:00,
2013-04-15 10:02:00,41.3,25.2,30.23,North,0,0.0,-999.0,52,0.00,,,-99.99,,2013-04-15 18:02:00,
2013-04-15 10:07:00,41.5,24.3,30.23,North,0,0.0,-999.0,50,0.00,,,-99.99,,2013-04-15 18:07:00,
2013-04-15 10:12:00,41.8,25.3,30.23,North,0,0.0,-999.0,51,0.00,,,-99.99,,2013-04-15 18:12:00,
2013-04-15 10:18:00,41.3,23.7,30.23,North,0,0.0,-999.0,49,0.00,,,-99.99,,2013-04-15 18:18:00,
2013-04-15 10:23:00,41.5,21.7,30.23,North,0,0.0,-999.0,44,0.00,,,-99.99,,2013-04-15 18:23:00,
2013-04-15 10:29:00,42.1,19.5,30.23,North,0,0.0,-999.0,39,0.00,,,-99.99,,2013-04-15 18:29:00,
2013-04-15 10:30:00,41.9,19.0,30.23,North,0,0.0,-999.0,39,0.00,,,-99.99,,2013-04-15 18:30:00,
2013-04-15 10:32:00,41.8,20.5,30.23,North,0,0.0,-999.0,42,0.00,,,-99.99,,2013-04-15 18:32:00,
2013-04-15 10:33:00,41.7,20.5,30.23,North,0,0.0,-999.0,42,0.00,,,-99.99,,2013-04-15 18:33:00,
2013-04-15 10:34:00,42.1,21.5,30.23,North,0,0.0,-999.0,43,0.00,,,-99.99,,2013-04-15 18:34:00,
2013-04-15 10:39:00,42.7,21.6,30.23,North,0,0.0,-999.0,42,0.00,,,-99.99,,2013-04-15 18:39:00,
2013-04-15 10:44:00,42.7,22.9,30.23,North,0,0.0,-999.0,44,0.00,,,-99.99,,2013-04-15 18:44:00,
2013-04-15 10:49:00,42.7,24.6,30.23,North,0,0.0,-999.0,48,0.00,,,-99.99,,2013-04-15 18:49:00,
2013-04-15 10:54:00,41.2,25.4,30.23,North,0,0.0,-999.0,52,0.00,,,-99.99,,2013-04-15 18:54:00,
2013-04-15 10:59:00,41.2,24.5,30.22,North,0,0.0,-999.0,51,0.00,,,-99.99,,2013-04-15 18:59:00,
2013-04-15 11:04:00,40.7,24.7,30.22,North,0,0.0,-999.0,52,0.00,,,-99.99,,2013-04-15 19:04:00,
2013-04-15 11:09:00,40.5,25.2,30.22,North,0,0.0,-999.0,53,0.00,,,-99.99,,2013-04-15 19:09:00,
2013-04-15 11:14:00,40.4,25.4,30.22,North,0,0.0,-999.0,54,0.00,,,-99.99,,2013-04-15 19:14:00,
2013-04-15 11:19:00,39.9,25.7,30.22,North,0,0.0,-999.0,56,0.00,,,-99.99,,2013-04-15 19:19:00,
2013-04-15 11:24:00,40.3,25.5,30.22,North,0,0.0,-999.0,55,0.00,,,-99.99,,2013-04-15 19:24:00,
2013-04-15 11:29:00,40.7,24.3,30.22,North,0,0.0,-999.0,51,0.00,,,-99.99,,2013-04-15 19:29:00,
2013-04-15 11:34:00,40.5,22.1,30.22,North,0,0.0,-999.0,47,0.00,,,-99.99,,2013-04-15 19:34:00,
2013-04-15 11:40:00,40.7,25.8,30.22,North,0,0.0,-999.0,54,0.00,,,-99.99,,2013-04-15 19:40:00,
2013-04-15 11:45:00,40.0,26.6,30.22,North,0,0.0,-999.0,58,0.00,,,-99.99,,2013-04-15 19:45:00,
2013-04-15 11:50:00,39.5,26.4,30.22,North,0,0.0,-999.0,58,0.00,,,-99.99,,2013-04-15 19:50:00,
2013-04-15 11:55:00,40.0,26.9,30.22,North,0,0.0,-999.0,59,0.00,,,-99.99,,2013-04-15 19:55:00,
2013-04-15 11:58:00,40.2,27.1,30.22,North,0,0.0,-999.0,59,0.00,,,-99.99,,2013-04-15 19:58:00,
2013-04-15 12:01:00,39.5,27.0,30.21,North,0,0.0,-999.0,60,0.00,,,-99.99,,2013-04-15 20:01:00,
2013-04-15 12:02:00,39.5,27.1,30.21,North,0,0.0,-999.0,60,0.00,,,-99.99,,2013-04-15 20:02:00,
2013-04-15 12:03:00,39.3,27.4,30.21,North,0,0.0,-999.0,62,0.00,,,-99.99,,2013-04-15 20:03:00,
2013-04-15 12:04:00,39.1,27.6,30.21,North,0,0.0,-999.0,62,0.00,,,-99.99,,2013-04-15 20:04:00,
2013-04-15 12:05:00,39.2,27.7,30.21,North,0,0.0,-999.0,63,0.00,,,-99.99,,2013-04-15 20:05:00,
2013-04-15 12:06:00,39.0,28.2,30.21,North,0,0.0,-999.0,64,0.00,,,-99.99,,2013-04-15 20:06:00,
2013-04-15 12:11:00,38.8,28.0,30.21,North,0,0.0,-999.0,64,0.00,,,-99.99,,2013-04-15 20:11:00,
2013-04-15 12:16:00,39.2,27.7,30.21,North,0,0.0,-999.0,63,0.00,,,-99.99,,2013-04-15 20:16:00,
2013-04-15 12:21:00,39.5,27.9,30.21,North,0,0.0,-999.0,62,0.00,,,-99.99,,2013-04-15 20:21:00,
2013-04-15 12:26:00,39.0,28.4,30.21,North,0,0.0,-999.0,65,0.00,,,-99.99,,2013-04-15 20:26:00,
2013-04-15 12:31:00,38.9,28.8,30.21,North,0,0.0,-999.0,66,0.00,,,-99.99,,2013-04-15 20:31:00,
2013-04-15 12:36:00,39.0,29.1,30.21,North,0,0.0,-999.0,67,0.00,,,-99.99,,2013-04-15 20:36:00,
2013-04-15 12:41:00,39.2,29.0,30.21,North,0,0.0,-999.0,66,0.00,,,-99.99,,2013-04-15 20:41:00,
2013-04-15 12:47:00,39.3,28.4,30.21,North,0,0.0,-999.0,64,0.00,,,-99.99,,2013-04-15 20:47:00,
2013-04-15 12:53:00,39.8,27.5,30.21,North,0,0.0,-999.0,61,0.00,,,-99.99,,2013-04-15 20:53:00,
2013-04-15 12:58:00,39.5,28.7,30.21,North,0,0.0,-999.0,65,0.00,,,-99.99,,2013-04-15 20:58:00,
2013-04-15 13:03:00,39.9,28.9,30.21,North,0,0.0,-999.0,64,0.00,,,-99.99,,2013-04-15 21:03:00,
2013-04-15 13:08:00,40.7,29.0,30.21,North,0,0.0,-999.0,62,0.00,,,-99.99,,2013-04-15 21:08:00,
2013-04-15 13:13:00,41.7,28.9,30.21,North,0,0.0,-999.0,60,0.00,,,-99.99,,2013-04-15 21:13:00,
2013-04-15 13:18:00,41.2,28.1,30.21,North,0,0.0,-999.0,59,0.00,,,-99.99,,2013-04-15 21:18:00,
2013-04-15 13:23:00,40.8,28.8,30.21,North,0,0.0,-999.0,61,0.00,,,-99.99,,2013-04-15 21:23:00,
2013-04-15 13:28:00,40.8,30.3,30.21,North,0,0.0,-999.0,65,0.00,,,-99.99,,2013-04-15 21:28:00,
2013-04-15 13:33:00,40.7,30.3,30.21,North,0,0.0,-999.0,66,0.00,,,-99.99,,2013-04-15 21:33:00,
2013-04-15 13:38:00,40.5,30.1,30.21,North,0,0.0,-999.0,66,0.00,,,-99.99,,2013-04-15 21:38:00,
2013-04-15 13:43:00,38.8,29.7,30.21,North,0,0.0,-999.0,69,0.00,,,-99.99,,2013-04-15 21:43:00,
2013-04-15 13:48:00,39.7,31.0,30.21,North,0,0.0,-999.0,70,0.00,,,-99.99,,2013-04-15 21:48:00,
2013-04-15 13:53:00,38.8,30.4,30.21,North,0,0.0,-999.0,71,0.00,,,-99.99,,2013-04-15 21:53:00,
2013-04-15 13:58:00,38.8,30.2,30.21,North,0,0.0,-999.0,71,0.00,,,-99.99,,2013-04-15 21:58:00,
2013-04-15 14:03:00,38.8,30.6,30.21,North,0,0.0,-999.0,72,0.00,,,-99.99,,2013-04-15 22:03:00,
2013-04-15 14:08:00,39.3,31.1,30.21,North,0,0.0,-999.0,72,0.00,,,-99.99,,2013-04-15 22:08:00,
2013-04-15 14:13:00,38.9,30.6,30.21,North,0,0.0,-999.0,71,0.00,,,-99.99,,2013-04-15 22:13:00,
2013-04-15 14:18:00,39.2,30.9,30.21,North,0,0.0,-999.0,71,0.00,,,-99.99,,2013-04-15 22:18:00,
2013-04-15 14:23:00,39.9,31.1,30.21,North,0,0.0,-999.0,70,0.00,,,-99.99,,2013-04-15 22:23:00,
2013-04-15 14:28:00,39.7,30.9,30.21,North,0,0.0,-999.0,70,0.00,,,-99.99,,2013-04-15 22:28:00,
2013-04-15 14:33:00,39.6,31.1,30.21,North,0,0.0,-999.0,71,0.00,,,-99.99,,2013-04-15 22:33:00,
2013-04-15 14:38:00,38.8,30.4,30.21,North,0,0.0,-999.0,71,0.00,,,-99.99,,2013-04-15 22:38:00,
2013-04-15 14:43:00,39.0,30.5,30.21,North,0,0.0,-999.0,71,0.00,,,-99.99,,2013-04-15 22:43:00,
2013-04-15 14:48:00,38.9,30.6,30.21,North,0,0.0,-999.0,71,0.00,,,-99.99,,2013-04-15 22:48:00,
2013-04-15 14:55:00,39.4,30.0,30.21,North,0,0.0,-999.0,68,0.00,,,-99.99,,2013-04-15 22:55:00,
2013-04-15 15:00:00,39.5,30.0,30.20,North,0,0.0,-999.0,68,0.00,,,-99.99,,2013-04-15 23:00:00,
2013-04-15 15:05:00,39.7,30.0,30.20,North,0,0.0,-999.0,68,0.00,,,-99.99,,2013-04-15 23:05:00,
2013-04-15 15:10:00,39.3,29.5,30.20,North,0,0.0,-999.0,67,0.00,,,-99.99,,2013-04-15 23:10:00,
2013-04-15 15:15:00,40.0,30.0,30.20,North,0,0.0,-999.0,66,0.00,,,-99.99,,2013-04-15 23:15:00,
2013-04-15 15:21:00,40.0,29.7,30.20,North,0,0.0,-999.0,66,0.00,,,-99.99,,2013-04-15 23:21:00,
2013-04-15 15:26:00,39.4,29.2,30.20,North,0,0.0,-999.0,66,0.00,,,-99.99,,2013-04-15 23:26:00,
2013-04-15 15:31:00,38.9,29.2,30.20,North,0,0.0,-999.0,67,0.00,,,-99.99,,2013-04-15 23:31:00,
2013-04-15 15:36:00,39.0,29.3,30.20,North,0,0.0,-999.0,67,0.00,,,-99.99,,2013-04-15 23:36:00,
2013-04-15 15:41:00,38.0,28.8,30.20,North,0,0.0,-999.0,69,0.00,,,-99.99,,2013-04-15 23:41:00,
2013-04-15 15:47:00,38.6,29.5,30.20,North,0,0.0,-999.0,69,0.00,,,-99.99,,2013-04-15 23:47:00,
2013-04-15 15:52:00,38.8,29.1,30.20,North,0,0.0,-999.0,67,0.00,,,-99.99,,2013-04-15 23:52:00,
2013-04-15 15:57:00,38.9,28.9,30.20,North,0,0.0,-999.0,67,0.00,,,-99.99,,2013-04-15 23:57:00,
2013-04-15 16:02:00,37.9,28.3,30.18,North,0,0.0,-999.0,68,0.00,,,-99.99,,2013-04-16 00:02:00,
2013-04-15 16:07:00,37.5,28.6,30.18,North,0,0.0,-999.0,70,0.00,,,-99.99,,2013-04-16 00:07:00,
2013-04-15 16:13:00,37.2,28.2,30.18,North,0,0.0,-999.0,69,0.00,,,-99.99,,2013-04-16 00:13:00,
2013-04-15 16:18:00,37.2,28.0,30.18,North,0,0.0,-999.0,69,0.00,,,-99.99,,2013-04-16 00:18:00,
2013-04-15 16:23:00,36.9,28.1,30.18,North,0,0.0,-999.0,70,0.00,,,-99.99,,2013-04-16 00:23:00,
2013-04-15 16:28:00,37.6,28.0,30.18,North,0,0.0,-999.0,68,0.00,,,-99.99,,2013-04-16 00:28:00,
2013-04-15 16:33:00,37.8,28.4,30.18,North,0,0.0,-999.0,68,0.00,,,-99.99,,2013-04-16 00:33:00,
2013-04-15 16:38:00,39.0,28.4,30.18,North,0,0.0,-999.0,65,0.00,,,-99.99,,2013-04-16 00:38:00,
2013-04-15 16:43:00,38.0,28.0,30.18,North,0,0.0,-999.0,66,0.00,,,-99.99,,2013-04-16 00:43:00,
2013-04-15 16:48:00,37.5,28.1,30.18,North,0,0.0,-999.0,68,0.00,,,-99.99,,2013-04-16 00:48:00,
2013-04-15 16:53:00,37.2,28.3,30.18,North,0,0.0,-999.0,69,0.00,,,-99.99,,2013-04-16 00:53:00,
2013-04-15 16:58:00,37.3,28.4,30.18,North,0,0.0,-999.0,69,0.00,,,-99.99,,2013-04-16 00:58:00,
2013-04-15 17:03:00,37.3,27.9,30.17,North,0,0.0,-999.0,68,0.00,,,-99.99,,2013-04-16 01:03:00,
2013-04-15 17:08:00,37.3,27.8,30.17,North,0,0.0,-999.0,68,0.00,,,-99.99,,2013-04-16 01:08:00,
2013-04-15 17:13:00,37.4,28.0,30.17,North,0,0.0,-999.0,68,0.00,,,-99.99,,2013-04-16 01:13:00,
2013-04-15 17:18:00,38.0,28.3,30.17,North,0,0.0,-999.0,67,0.00,,,-99.99,,2013-04-16 01:18:00,
2013-04-15 17:23:00,37.4,28.0,30.17,North,0,0.0,-999.0,68,0.00,,,-99.99,,2013-04-16 01:23:00,
2013-04-15 17:28:00,37.4,28.2,30.17,North,0,0.0,-999.0,69,0.00,,,-99.99,,2013-04-16 01:28:00,
2013-04-15 17:33:00,37.3,27.9,30.17,North,0,0.0,-999.0,68,0.00,,,-99.99,,2013-04-16 01:33:00,
2013-04-15 17:38:00,37.5,28.2,30.17,North,0,0.0,-999.0,68,0.00,,,-99.99,,2013-04-16 01:38:00,
2013-04-15 17:43:00,37.7,28.1,30.17,North,0,0.0,-999.0,68,0.00,,,-99.99,,2013-04-16 01:43:00,
2013-04-15 17:48:00,38.2,28.2,30.17,North,0,0.0,-999.0,66,0.00,,,-99.99,,2013-04-16 01:48:00,
2013-04-15 17:53:00,37.3,27.7,30.17,North,0,0.0,-999.0,67,0.00,,,-99.99,,2013-04-16 01:53:00,
2013-04-15 17:58:00,37.2,27.9,30.17,North,0,0.0,-999.0,68,0.00,,,-99.99,,2013-04-16 01:58:00,
2013-04-15 18:03:00,36.8,27.6,30.16,North,0,0.0,-999.0,69,0.00,,,-99.99,,2013-04-16 02:03:00,
2013-04-15 18:08:00,36.9,27.8,30.16,North,0,0.0,-999.0,69,0.00,,,-99.99,,2013-04-16 02:08:00,
2013-04-15 18:13:00,36.9,27.8,30.16,North,0,0.0,-999.0,69,0.00,,,-99.99,,2013-04-16 02:13:00,
2013-04-15 18:18:00,37.2,27.9,30.16,North,0,0.0,-999.0,68,0.00,,,-99.99,,2013-04-16 02:18:00,
2013-04-15 18:23:00,37.3,27.8,30.16,North,0,0.0,-999.0,68,0.00,,,-99.99,,2013-04-16 02:23:00,
2013-04-15 18:28:00,37.1,27.6,30.16,North,0,0.0,-999.0,68,0.00,,,-99.99,,2013-04-16 02:28:00,
2013-04-15 18:33:00,36.7,27.6,30.16,North,0,0.0,-999.0,69,0.00,,,-99.99,,2013-04-16 02:33:00,
2013-04-15 18:38:00,37.2,28.0,30.16,North,0,0.0,-999.0,69,0.00,,,-99.99,,2013-04-16 02:38:00,
2013-04-15 18:43:00,37.0,27.9,30.16,North,0,0.0,-999.0,69,0.00,,,-99.99,,2013-04-16 02:43:00,
2013-04-15 18:48:00,37.0,27.7,30.16,North,0,0.0,-999.0,68,0.00,,,-99.99,,2013-04-16 02:48:00,
2013-04-15 18:53:00,37.3,27.9,30.16,North,0,0.0,-999.0,68,0.00,,,-99.99,,2013-04-16 02:53:00,
2013-04-15 18:58:00,37.3,27.9,30.16,North,0,0.0,-999.0,68,0.00,,,-99.99,,2013-04-16 02:58:00,
2013-04-15 19:03:00,37.2,27.5,30.16,North,0,0.0,-999.0,67,0.00,,,-99.99,,2013-04-16 03:03:00,
2013-04-15 19:08:00,36.8,27.3,30.16,North,0,0.0,-999.0,68,0.00,,,-99.99,,2013-04-16 03:08:00,
2013-04-15 19:13:00,36.7,27.1,30.16,North,0,0.0,-999.0,68,0.00,,,-99.99,,2013-04-16 03:13:00,
2013-04-15 19:18:00,37.0,27.7,30.16,North,0,0.0,-999.0,68,0.00,,,-99.99,,2013-04-16 03:18:00,
2013-04-15 19:23:00,37.1,27.7,30.16,North,0,0.0,-999.0,68,0.00,,,-99.99,,2013-04-16 03:23:00,
2013-04-15 19:28:00,36.8,27.6,30.16,North,0,0.0,-999.0,68,0.00,,,-99.99,,2013-04-16 03:28:00,
2013-04-15 19:33:00,37.2,28.0,30.16,North,0,0.0,-999.0,69,0.00,,,-99.99,,2013-04-16 03:33:00,
2013-04-15 19:38:00,36.5,27.3,30.16,North,0,0.0,-999.0,68,0.00,,,-99.99,,2013-04-16 03:38:00,
2013-04-15 19:43:00,36.9,27.7,30.16,North,0,0.0,-999.0,68,0.00,,,-99.99,,2013-04-16 03:43:00,
2013-04-15 19:48:00,36.8,27.9,30.16,North,0,0.0,-999.0,69,0.00,,,-99.99,,2013-04-16 03:48:00,
2013-04-15 19:53:00,36.8,27.9,30.16,North,0,0.0,-999.0,69,0.00,,,-99.99,,2013-04-16 03:53:00,
2013-04-15 19:58:00,37.0,27.7,30.16,North,0,0.0,-999.0,68,0.00,,,-99.99,,2013-04-16 03:58:00,
2013-04-15 20:00:00,36.9,27.7,30.14,North,0,0.0,-999.0,68,0.00,,,-99.99,,2013-04-16 04:00:00,
2013-04-15 20:01:00,37.0,27.8,30.14,North,0,0.0,-999.0,69,0.00,,,-99.99,,2013-04-16 04:01:00,
2013-04-15 20:03:00,36.8,27.7,30.14,North,0,0.0,-999.0,69,0.00,,,-99.99,,2013-04-16 04:03:00,
2013-04-15 20:04:00,36.9,27.8,30.14,North,0,0.0,-999.0,69,0.00,,,-99.99,,2013-04-16 04:04:00,
2013-04-15 20:08:00,36.8,27.7,30.14,North,0,0.0,-999.0,69,0.00,,,-99.99,,2013-04-16 04:08:00,
2013-04-15 20:13:00,37.0,27.7,30.14,North,0,0.0,-999.0,68,0.00,,,-99.99,,2013-04-16 04:13:00,
2013-04-15 20:18:00,36.8,27.5,30.14,North,0,0.0,-999.0,68,0.00,,,-99.99,,2013-04-16 04:18:00,
2013-04-15 20:23:00,36.8,27.6,30.14,North,0,0.0,-999.0,68,0.00,,,-99.99,,2013-04-16 04:23:00,
2013-04-15 20:28:00,36.7,27.3,30.14,North,0,0.0,-999.0,68,0.00,,,-99.99,,2013-04-16 04:28:00,
2013-04-15 20:33:00,37.0,27.5,30.14,North,0,0.0,-999.0,68,0.00,,,-99.99,,2013-04-16 04:33:00,
2013-04-15 20:38:00,36.7,26.8,30.14,North,0,0.0,-999.0,66,0.00,,,-99.99,,2013-04-16 04:38:00,
2013-04-15 20:43:00,36.5,26.8,30.14,North,0,0.0,-999.0,67,0.00,,,-99.99,,2013-04-16 04:43:00,
2013-04-15 20:48:00,36.3,26.6,30.14,North,0,0.0,-999.0,67,0.00,,,-99.99,,2013-04-16 04:48:00,
2013-04-15 20:53:00,36.2,26.5,30.14,North,0,0.0,-999.0,67,0.00,,,-99.99,,2013-04-16 04:53:00,
2013-04-15 20:58:00,36.3,26.5,30.14,North,0,0.0,-999.0,67,0.00,,,-99.99,,2013-04-16 04:58:00,
2013-04-15 21:03:00,36.2,25.9,30.12,North,0,0.0,-999.0,65,0.00,,,-99.99,,2013-04-16 05:03:00,
2013-04-15 21:08:00,36.2,25.9,30.12,North,0,0.0,-999.0,65,0.00,,,-99.99,,2013-04-16 05:08:00,
2013-04-15 21:13:00,36.0,25.1,30.12,North,0,0.0,-999.0,64,0.00,,,-99.99,,2013-04-16 05:13:00,
2013-04-15 21:18:00,35.9,25.1,30.12,North,0,0.0,-999.0,64,0.00,,,-99.99,,2013-04-16 05:18:00,
2013-04-15 21:23:00,35.8,24.6,30.12,North,0,0.0,-999.0,63,0.00,,,-99.99,,2013-04-16 05:23:00,
2013-04-15 21:28:00,35.8,24.5,30.12,North,0,0.0,-999.0,63,0.00,,,-99.99,,2013-04-16 05:28:00,
2013-04-15 21:33:00,35.5,25.1,30.12,North,0,0.0,-999.0,65,0.00,,,-99.99,,2013-04-16 05:33:00,
2013-04-15 21:38:00,35.6,24.2,30.12,North,0,0.0,-999.0,62,0.00,,,-99.99,,2013-04-16 05:38:00,
2013-04-15 21:43:00,35.7,24.2,30.12,North,0,0.0,-999.0,62,0.00,,,-99.99,,2013-04-16 05:43:00,
2013-04-15 21:48:00,35.7,23.9,30.12,North,0,0.0,-999.0,61,0.00,,,-99.99,,2013-04-16 05:48:00,
2013-04-15 21:53:00,35.6,23.4,30.12,North,0,0.0,-999.0,60,0.00,,,-99.99,,2013-04-16 05:53:00,
2013-04-15 21:58:00,35.6,23.4,30.12,North,0,0.0,-999.0,60,0.00,,,-99.99,,2013-04-16 05:58:00,
2013-04-15 22:03:00,35.2,22.9,30.13,North,0,0.0,-999.0,60,0.00,,,-99.99,,2013-04-16 06:03:00,
2013-04-15 22:08:00,35.2,23.6,30.13,North,0,0.0,-999.0,62,0.00,,,-99.99,,2013-04-16 06:08:00,
2013-04-15 22:13:00,35.1,23.2,30.13,North,0,0.0,-999.0,61,0.00,,,-99.99,,2013-04-16 06:13:00,
2013-04-15 22:18:00,35.1,23.2,30.13,North,0,0.0,-999.0,61,0.00,,,-99.99,,2013-04-16 06:18:00,
2013-04-15 22:23:00,35.1,23.2,30.13,North,0,0.0,-999.0,61,0.00,,,-99.99,,2013-04-16 06:23:00,
2013-04-15 22:28:00,35.2,23.4,30.13,North,0,0.0,-999.0,61,0.00,,,-99.99,,2013-04-16 06:28:00,
2013-04-15 22:33:00,35.3,23.2,30.13,North,0,0.0,-999.0,60,0.00,,,-99.99,,2013-04-16 06:33:00,
2013-04-15 22:38:00,35.1,23.1,30.13,North,0,0.0,-999.0,61,0.00,,,-99.99,,2013-04-16 06:38:00,
2013-04-15 22:43:00,35.2,23.3,30.13,North,0,0.0,-999.0,61,0.00,,,-99.99,,2013-04-16 06:43:00,
2013-04-15 22:48:00,35.2,23.3,30.13,North,0,0.0,-999.0,61,0.00,,,-99.99,,2013-04-16 06:48:00,
2013-04-15 22:53:00,35.2,23.6,30.13,North,0,0.0,-999.0,62,0.00,,,-99.99,,2013-04-16 06:53:00,
2013-04-15 22:58:00,34.9,23.1,30.13,North,0,0.0,-999.0,61,0.00,,,-99.99,,2013-04-16 06:58:00,
2013-04-15 23:03:00,35.1,23.4,30.10,North,0,0.0,-999.0,62,0.00,,,-99.99,,2013-04-16 07:03:00,
2013-04-15 23:08:00,35.4,24.9,30.10,North,0,0.0,-999.0,65,0.00,,,-99.99,,2013-04-16 07:08:00,
2013-04-15 23:13:00,35.5,25.1,30.10,North,0,0.0,-999.0,65,0.00,,,-99.99,,2013-04-16 07:13:00,
2013-04-15 23:18:00,35.5,25.2,30.10,North,0,0.0,-999.0,65,0.00,,,-99.99,,2013-04-16 07:18:00,
2013-04-15 23:23:00,35.5,25.5,30.10,North,0,0.0,-999.0,66,0.00,,,-99.99,,2013-04-16 07:23:00,
2013-04-15 23:28:00,35.6,25.3,30.10,North,0,0.0,-999.0,65,0.00,,,-99.99,,2013-04-16 07:28:00,
2013-04-15 23:33:00,35.7,25.5,30.10,North,0,0.0,-999.0,66,0.00,,,-99.99,,2013-04-16 07:33:00,
2013-04-15 23:38:00,35.7,25.4,30.10,North,0,0.0,-999.0,65,0.00,,,-99.99,,2013-04-16 07:38:00,
2013-04-15 23:43:00,35.6,25.2,30.10,North,0,0.0,-999.0,65,0.00,,,-99.99,,2013-04-16 07:43:00,
2013-04-15 23:48:00,35.6,25.2,30.10,North,0,0.0,-999.0,65,0.00,,,-99.99,,2013-04-16 07:48:00,
2013-04-15 23:53:00,35.6,25.0,30.10,North,0,0.0,-999.0,65,0.00,,,-99.99,,2013-04-16 07:53:00,
2013-04-15 23:58:00,35.7,25.3,30.10,North,0,0.0,-999.0,65,0.00,,,-99.99,,2013-04-16 07:58:00,